createdAt,value
2016-08-04T13:45:23.585Z,57.1
2016-08-04T13:45:33.575Z,56
2016-08-04T13:45:43.629Z,54
2016-08-04T13:45:54.271Z,51.9
2016-08-04T13:46:04.275Z,51.7
2016-08-04T13:46:13.545Z,51.4
2016-08-04T13:46:24.278Z,51.4
2016-08-04T13:46:34.292Z,51.4
2016-08-04T13:46:44.293Z,52
2016-08-04T13:46:54.291Z,51.9
2016-08-04T13:47:04.299Z,52.4
2016-08-04T13:47:14.304Z,52.8
2016-08-04T13:47:24.310Z,52.8
2016-08-04T13:47:34.311Z,53.7
2016-08-04T13:47:44.320Z,53.9
2016-08-04T13:47:54.319Z,54.5
2016-08-04T13:48:04.325Z,55.3
2016-08-04T13:48:14.328Z,56.3
2016-08-04T13:48:24.334Z,56.7
2016-08-04T13:48:34.339Z,57.1
2016-08-04T13:48:44.344Z,57.8
2016-08-04T13:48:54.348Z,57.7
2016-08-04T13:49:04.351Z,57.8
2016-08-04T13:49:14.356Z,58
2016-08-04T13:49:24.360Z,58.1
2016-08-04T13:49:34.367Z,58.4
2016-08-04T13:49:44.370Z,59
2016-08-04T13:49:54.373Z,59
2016-08-04T13:50:04.389Z,59.9
2016-08-04T13:50:13.653Z,60.3
2016-08-04T13:50:24.391Z,60.2
2016-08-04T13:50:34.395Z,60.6
2016-08-04T13:50:44.399Z,61.2
2016-08-04T13:50:54.404Z,61.6
2016-08-04T13:51:04.407Z,61.7
2016-08-04T13:51:14.413Z,61.7
2016-08-04T13:51:24.424Z,62.3
2016-08-04T13:51:34.422Z,63
2016-08-04T13:51:44.426Z,63.3
2016-08-04T13:51:54.434Z,63.8
2016-08-04T13:52:04.436Z,63.8
2016-08-04T13:52:14.453Z,64.6
2016-08-04T13:52:24.448Z,64.5
2016-08-04T13:52:34.450Z,65.2
2016-08-04T13:52:44.454Z,65.3
2016-08-04T13:53:04.469Z,66.6
2016-08-04T13:53:14.475Z,67.2
2016-08-04T13:53:24.474Z,67
2016-08-04T13:53:34.481Z,67.3
2016-08-04T13:53:44.487Z,67
2016-08-04T13:53:54.492Z,67
2016-08-04T13:54:04.511Z,67.2
2016-08-04T13:54:14.499Z,67
2016-08-04T13:54:24.505Z,67
2016-08-04T13:54:34.510Z,67.8
2016-08-04T13:54:44.580Z,68.1
2016-08-04T13:54:54.519Z,68.6
2016-08-04T13:55:04.526Z,68.5
2016-08-04T13:55:14.557Z,68.8
2016-08-04T13:55:24.548Z,68.7
2016-08-04T13:55:34.540Z,68.9
2016-08-04T13:55:44.546Z,69.3
2016-08-04T13:55:54.554Z,69.1
2016-08-04T13:56:04.553Z,69.2
2016-08-04T13:56:14.559Z,69.3
2016-08-04T13:56:24.563Z,69.7
2016-08-04T13:56:34.573Z,69.7
2016-08-04T13:56:44.575Z,70.3
2016-08-04T13:56:54.579Z,70.5
2016-08-04T13:57:04.590Z,70.7
2016-08-04T13:57:14.589Z,70.6
2016-08-04T13:57:24.593Z,70.8
2016-08-04T13:57:34.600Z,70.8
2016-08-04T13:57:44.604Z,70.7
2016-08-04T13:57:54.606Z,70.7
2016-08-04T13:58:04.612Z,71
2016-08-04T13:58:14.616Z,70.8
2016-08-04T13:58:24.621Z,71.3
2016-08-04T13:58:34.630Z,71.1
2016-08-04T13:58:44.633Z,71
2016-08-04T13:58:54.637Z,71.2
2016-08-04T13:59:04.644Z,71.6
2016-08-04T13:59:14.647Z,71.8
2016-08-04T13:59:24.654Z,72.4
2016-08-04T13:59:34.656Z,72.4
2016-08-04T13:59:44.664Z,72.3
2016-08-04T13:59:54.667Z,72.1
2016-08-04T14:00:04.675Z,72.4
2016-08-04T14:00:14.677Z,71.7
2016-08-04T14:00:24.683Z,71.9
2016-08-04T14:00:34.693Z,72.5
2016-08-04T14:00:44.692Z,73.2
2016-08-04T14:00:54.698Z,73.1
2016-08-04T14:01:04.703Z,72.9
2016-08-04T14:01:14.706Z,73.3
2016-08-04T14:01:24.712Z,74.1
2016-08-04T14:01:34.718Z,74.3
2016-08-04T14:01:44.721Z,73.9
2016-08-04T14:01:54.726Z,73.9
2016-08-04T14:02:04.731Z,73.9
2016-08-04T14:02:14.746Z,73.3
2016-08-04T14:02:24.743Z,73.3
2016-08-04T14:02:34.752Z,74.1
2016-08-04T14:02:44.751Z,73.9
2016-08-04T14:02:54.755Z,74.1
2016-08-04T14:03:04.760Z,73.6
2016-08-04T14:03:14.767Z,73.8
2016-08-04T14:03:24.772Z,74
2016-08-04T14:03:34.776Z,73.7
2016-08-04T14:03:44.788Z,73.9
2016-08-04T14:03:54.790Z,74
2016-08-04T14:04:04.791Z,74.4
2016-08-04T14:04:14.799Z,75.3
2016-08-04T14:04:24.798Z,75.6
2016-08-04T14:04:34.807Z,75.2
2016-08-04T14:04:44.814Z,74.9
2016-08-04T14:04:54.818Z,75
2016-08-04T14:05:04.819Z,75.5
2016-08-04T14:05:14.824Z,75
2016-08-04T14:05:24.101Z,74.8
2016-08-04T14:05:34.835Z,74.8
2016-08-04T14:05:44.838Z,74.9
2016-08-04T14:05:54.845Z,74.9
2016-08-04T14:06:04.850Z,75
2016-08-04T14:06:14.857Z,74.6
2016-08-04T14:06:24.859Z,75.2
2016-08-04T14:06:34.865Z,74.7
2016-08-04T14:06:44.868Z,75.2
2016-08-04T14:06:54.880Z,75
2016-08-04T14:07:04.876Z,74.7
2016-08-04T14:07:14.883Z,74.9
2016-08-04T14:07:24.889Z,74.9
2016-08-04T14:07:34.898Z,74.7
2016-08-04T14:07:44.900Z,74.9
2016-08-04T14:08:04.909Z,75.3
2016-08-04T14:08:14.912Z,75.9
2016-08-04T14:08:24.918Z,75.4
2016-08-04T14:08:34.926Z,75.5
2016-08-04T14:08:44.937Z,75.4
2016-08-04T14:08:54.934Z,75.3
2016-08-04T14:09:04.939Z,75.3
2016-08-04T14:09:14.943Z,75.5
2016-08-04T14:09:24.948Z,75.4
2016-08-04T14:09:34.957Z,75.8
2016-08-04T14:09:44.957Z,75.4
2016-08-04T14:09:54.963Z,75.5
2016-08-04T14:10:04.968Z,75.6
2016-08-04T14:10:14.974Z,75.6
2016-08-04T14:10:24.978Z,75.6
2016-08-04T14:10:34.987Z,75.4
2016-08-04T14:10:44.989Z,75.4
2016-08-04T14:10:54.991Z,76
2016-08-04T14:11:04.998Z,76.3
2016-08-04T14:11:15.000Z,75.9
2016-08-04T14:11:25.007Z,75.9
2016-08-04T14:11:35.020Z,75.9
2016-08-04T14:11:45.016Z,75.9
2016-08-04T14:11:55.020Z,75.9
2016-08-04T14:12:05.025Z,75.9
2016-08-04T14:12:15.035Z,76.2
2016-08-04T14:12:25.033Z,76.7
2016-08-04T14:12:35.041Z,76.7
2016-08-04T14:12:45.045Z,77.2
2016-08-04T14:12:55.057Z,76.8
2016-08-04T14:13:05.054Z,76.6
2016-08-04T14:13:15.059Z,76.2
2016-08-04T14:13:25.066Z,76.7
2016-08-04T14:13:35.077Z,76.8
2016-08-04T14:13:45.073Z,76.4
2016-08-04T14:13:55.092Z,77.2
2016-08-04T14:14:05.085Z,77.1
2016-08-04T14:14:15.088Z,76.9
2016-08-04T14:14:25.095Z,77.2
2016-08-04T14:14:35.100Z,77.5
2016-08-04T14:14:45.105Z,77.8
2016-08-04T14:14:54.379Z,77.4
2016-08-04T14:15:05.114Z,77.3
2016-08-04T14:15:15.122Z,77.4
2016-08-04T14:15:25.125Z,77.3
2016-08-04T14:15:35.130Z,77.1
2016-08-04T14:15:45.134Z,77.4
2016-08-04T14:15:54.408Z,77.3
2016-08-04T14:16:05.143Z,77.4
2016-08-04T14:16:15.146Z,77
2016-08-04T14:16:25.155Z,77
2016-08-04T14:16:34.427Z,76.9
2016-08-04T14:16:45.165Z,76.8
2016-08-04T14:16:55.166Z,77.4
2016-08-04T14:17:04.446Z,77.4
2016-08-04T14:17:14.452Z,77.4
2016-08-04T14:17:25.181Z,77.1
2016-08-04T14:17:34.456Z,77.3
2016-08-04T14:17:44.464Z,77.3
2016-08-04T14:17:55.197Z,77.4
2016-08-04T14:18:04.477Z,77.3
2016-08-04T14:18:15.207Z,77.2
2016-08-04T14:18:25.211Z,77.3
2016-08-04T14:18:35.216Z,77.3
2016-08-04T14:18:45.233Z,77.1
2016-08-04T14:18:55.226Z,77.4
2016-08-04T14:19:05.231Z,77
2016-08-04T14:19:15.237Z,77.4
2016-08-04T14:19:25.246Z,77.7
2016-08-04T14:19:35.246Z,77.7
2016-08-04T14:19:44.526Z,78
2016-08-04T14:19:54.527Z,78.3
2016-08-04T14:20:05.264Z,78.1
2016-08-04T14:20:15.265Z,77.7
2016-08-04T14:20:25.273Z,77.7
2016-08-04T14:20:35.283Z,77.7
2016-08-04T14:20:45.280Z,77.9
2016-08-04T14:20:55.286Z,77.4
2016-08-04T14:21:05.291Z,77.4
2016-08-04T14:21:15.298Z,77.8
2016-08-04T14:21:25.296Z,77.7
2016-08-04T14:21:35.302Z,77.5
2016-08-04T14:21:45.309Z,77.2
2016-08-04T14:21:54.584Z,77.9
2016-08-04T14:22:05.319Z,77.8
2016-08-04T14:22:15.322Z,77.9
2016-08-04T14:22:25.329Z,78
2016-08-04T14:22:34.612Z,78.1
2016-08-04T14:22:45.347Z,77.5
2016-08-04T14:23:05.353Z,77.9
2016-08-04T14:23:14.624Z,78.1
2016-08-04T14:23:25.357Z,77.9
2016-08-04T14:23:35.360Z,78
2016-08-04T14:23:45.365Z,77.7
2016-08-04T14:23:55.372Z,78.4
2016-08-04T14:24:05.379Z,78.1
2016-08-04T14:24:15.381Z,78.2
2016-08-04T14:24:25.391Z,78.2
2016-08-04T14:24:35.391Z,78.4
2016-08-04T14:24:44.667Z,78.2
2016-08-04T14:24:55.400Z,78.1
2016-08-04T14:25:05.408Z,78.3
2016-08-04T14:25:15.408Z,78.8
2016-08-04T14:25:25.417Z,79.2
2016-08-04T14:25:35.421Z,78.8
2016-08-04T14:25:45.425Z,79.2
2016-08-04T14:25:55.429Z,79.7
2016-08-04T14:26:04.703Z,79.1
2016-08-04T14:26:15.441Z,78.8
2016-08-04T14:26:25.455Z,78.2
2016-08-04T14:26:35.451Z,78.2
2016-08-04T14:26:44.725Z,78.2
2016-08-04T14:26:55.461Z,78
2016-08-04T14:27:05.464Z,78.1
2016-08-04T14:27:15.468Z,77.9
2016-08-04T14:27:24.744Z,77.8
2016-08-04T14:27:35.478Z,77.9
2016-08-04T14:27:45.484Z,78.4
2016-08-04T14:27:54.757Z,77.8
2016-08-04T14:28:05.497Z,77.7
2016-08-04T14:28:15.498Z,78.2
2016-08-04T14:28:25.502Z,78.3
2016-08-04T14:28:35.507Z,78.3
2016-08-04T14:28:45.519Z,78
2016-08-04T14:28:55.516Z,78.1
2016-08-04T14:29:05.522Z,77.8
2016-08-04T14:29:15.527Z,78.1
2016-08-04T14:29:24.800Z,78.3
2016-08-04T14:29:35.536Z,78.4
2016-08-04T14:29:44.814Z,78.7
2016-08-04T14:29:54.819Z,78.7
2016-08-04T14:30:05.559Z,79.1
2016-08-04T14:30:14.827Z,79.1
2016-08-04T14:30:24.833Z,78.8
2016-08-04T14:30:35.563Z,78.3
2016-08-04T14:30:45.572Z,78.6
2016-08-04T14:30:54.847Z,78.7
2016-08-04T14:31:05.579Z,79
2016-08-04T14:31:15.586Z,79
2016-08-04T14:31:25.603Z,78.7
2016-08-04T14:31:35.598Z,78.8
2016-08-04T14:31:45.599Z,78.7
2016-08-04T14:31:55.601Z,78.6
2016-08-04T14:32:05.606Z,79.2
2016-08-04T14:32:15.617Z,78.8
2016-08-04T14:32:25.616Z,78.7
2016-08-04T14:32:35.621Z,78.8
2016-08-04T14:32:45.626Z,78.6
2016-08-04T14:32:55.635Z,78.6
2016-08-04T14:33:04.908Z,78.5
2016-08-04T14:33:14.912Z,78.9
2016-08-04T14:33:25.648Z,78.7
2016-08-04T14:33:35.655Z,79.4
2016-08-04T14:33:44.926Z,79.1
2016-08-04T14:33:54.931Z,79.1
2016-08-04T14:34:04.939Z,79.3
2016-08-04T14:34:15.670Z,78.8
2016-08-04T14:34:25.676Z,78.7
2016-08-04T14:34:35.679Z,79
2016-08-04T14:34:45.685Z,79.2
2016-08-04T14:34:55.693Z,79.1
2016-08-04T14:35:05.693Z,79.1
2016-08-04T14:35:15.700Z,78.8
2016-08-04T14:35:25.705Z,78.4
2016-08-04T14:35:35.708Z,78.3
2016-08-04T14:35:45.714Z,78.1
2016-08-04T14:35:55.718Z,78.2
2016-08-04T14:36:05.729Z,78.8
2016-08-04T14:36:15.733Z,79
2016-08-04T14:36:25.005Z,79.7
2016-08-04T14:36:35.743Z,79.8
2016-08-04T14:36:45.012Z,79.5
2016-08-04T14:36:55.749Z,79.8
2016-08-04T14:37:05.756Z,79.6
2016-08-04T14:37:15.755Z,79.7
2016-08-04T14:37:25.034Z,79.2
2016-08-04T14:37:35.768Z,79
2016-08-04T14:37:45.772Z,79
2016-08-04T14:37:55.779Z,78.8
2016-08-04T14:38:15.788Z,78.1
2016-08-04T14:38:25.062Z,78.1
2016-08-04T14:38:35.796Z,78.2
2016-08-04T14:38:45.801Z,78.3
2016-08-04T14:38:55.805Z,78.2
2016-08-04T14:39:05.811Z,78.7
2016-08-04T14:39:15.820Z,78.8
2016-08-04T14:39:25.820Z,78.4
2016-08-04T14:39:35.824Z,78.5
2016-08-04T14:39:45.832Z,78.8
2016-08-04T14:39:55.839Z,78.2
2016-08-04T14:40:05.842Z,77.8
2016-08-04T14:40:15.113Z,77.7
2016-08-04T14:40:25.121Z,78.1
2016-08-04T14:40:35.122Z,78.1
2016-08-04T14:40:45.858Z,77.6
2016-08-04T14:40:55.863Z,77.7
2016-08-04T14:41:05.868Z,77.7
2016-08-04T14:41:15.873Z,77.2
2016-08-04T14:41:25.880Z,77.7
2016-08-04T14:41:35.886Z,77.7
2016-08-04T14:41:45.889Z,77.8
2016-08-04T14:41:55.894Z,77.4
2016-08-04T14:42:05.898Z,77.1
2016-08-04T14:42:15.901Z,77.3
2016-08-04T14:42:25.907Z,77.5
2016-08-04T14:42:35.913Z,77.2
2016-08-04T14:42:45.918Z,77.2
2016-08-04T14:42:55.920Z,77.1
2016-08-04T14:43:05.923Z,77.5
2016-08-04T14:43:15.930Z,77.4
2016-08-04T14:43:25.935Z,77.9
2016-08-04T14:43:35.943Z,77.9
2016-08-04T14:43:45.945Z,78.2
2016-08-04T14:43:55.948Z,78.2
2016-08-04T14:44:05.954Z,78.2
2016-08-04T14:44:15.959Z,78.1
2016-08-04T14:44:25.966Z,78.1
2016-08-04T14:44:35.970Z,78.3
2016-08-04T14:44:45.973Z,77.7
2016-08-04T14:44:55.981Z,77.7
2016-08-04T14:45:05.983Z,77.7
2016-08-04T14:45:15.994Z,77.7
2016-08-04T14:45:26.010Z,77.9
2016-08-04T14:45:35.998Z,77.6
2016-08-04T14:45:46.000Z,77.2
2016-08-04T14:45:56.008Z,77.2
2016-08-04T14:46:06.013Z,77.1
2016-08-04T14:46:16.017Z,77.8
2016-08-04T14:46:26.021Z,77.6
2016-08-04T14:46:36.028Z,78.1
2016-08-04T14:46:46.031Z,77.8
2016-08-04T14:46:56.038Z,77.5
2016-08-04T14:47:05.308Z,77.8
2016-08-04T14:47:16.045Z,77.8
2016-08-04T14:47:26.050Z,77.4
2016-08-04T14:47:36.056Z,77.9
2016-08-04T14:47:46.058Z,77.8
2016-08-04T14:47:56.065Z,77.2
2016-08-04T14:48:06.073Z,77.4
2016-08-04T14:48:16.076Z,77.1
2016-08-04T14:48:25.350Z,77.1
2016-08-04T14:48:36.086Z,77.2
2016-08-04T14:48:46.089Z,77
2016-08-04T14:48:56.093Z,77
2016-08-04T14:49:06.099Z,77.6
2016-08-04T14:49:16.105Z,77.9
2016-08-04T14:49:26.110Z,77.6
2016-08-04T14:49:36.113Z,78.3
2016-08-04T14:49:46.122Z,78.5
2016-08-04T14:49:56.125Z,78.5
2016-08-04T14:50:06.130Z,78.3
2016-08-04T14:50:16.132Z,77.5
2016-08-04T14:50:26.145Z,77.6
2016-08-04T14:50:36.141Z,78.1
2016-08-04T14:50:46.150Z,77.8
2016-08-04T14:50:56.152Z,77.7
2016-08-04T14:51:06.159Z,77.3
2016-08-04T14:51:16.163Z,77.5
2016-08-04T14:51:26.169Z,77.6
2016-08-04T14:51:36.172Z,78
2016-08-04T14:51:46.177Z,77.6
2016-08-04T14:51:56.183Z,77.6
2016-08-04T14:52:06.189Z,77.7
2016-08-04T14:52:16.191Z,77.7
2016-08-04T14:52:26.195Z,78
2016-08-04T14:52:36.205Z,78.2
2016-08-04T14:52:46.207Z,78.2
2016-08-04T14:52:56.209Z,78.1
2016-08-04T14:53:16.220Z,78.1
2016-08-04T14:53:26.226Z,78.2
2016-08-04T14:53:36.230Z,78.1
2016-08-04T14:53:46.236Z,78.3
2016-08-04T14:53:56.241Z,77.7
2016-08-04T14:54:06.244Z,77.6
2016-08-04T14:54:15.521Z,77.9
2016-08-04T14:54:26.258Z,77.7
2016-08-04T14:54:36.256Z,77.9
2016-08-04T14:54:46.261Z,78.2
2016-08-04T14:54:56.270Z,78
2016-08-04T14:55:06.273Z,77.8
2016-08-04T14:55:16.276Z,77.8
2016-08-04T14:55:26.282Z,77.5
2016-08-04T14:55:36.288Z,78
2016-08-04T14:55:46.290Z,77.7
2016-08-04T14:55:56.299Z,77.4
2016-08-04T14:56:06.301Z,77.5
2016-08-04T14:56:16.361Z,77.3
2016-08-04T14:56:26.315Z,77.7
2016-08-04T14:56:36.315Z,77.7
2016-08-04T14:56:46.321Z,77.6
2016-08-04T14:56:56.326Z,78
2016-08-04T14:57:06.330Z,78.1
2016-08-04T14:57:16.341Z,78.2
2016-08-04T14:57:26.346Z,78
2016-08-04T14:57:36.347Z,77.7
2016-08-04T14:57:46.350Z,77.7
2016-08-04T14:57:56.354Z,78
2016-08-04T14:58:06.358Z,78.1
2016-08-04T14:58:16.363Z,78
2016-08-04T14:58:26.388Z,78.2
2016-08-04T14:58:36.374Z,78.1
2016-08-04T14:58:46.377Z,77.7
2016-08-04T14:58:56.384Z,77.6
2016-08-04T14:59:06.389Z,77.7
2016-08-04T14:59:16.395Z,77.8
2016-08-04T14:59:26.401Z,77.8
2016-08-04T14:59:36.402Z,77.8
2016-08-04T14:59:46.408Z,77.6
2016-08-04T14:59:56.412Z,77.7
2016-08-04T15:00:06.420Z,78.1
2016-08-04T15:00:16.425Z,78.2
2016-08-04T15:00:26.426Z,78.3
2016-08-04T15:00:36.432Z,78.7
2016-08-04T15:00:45.722Z,78.6
2016-08-04T15:00:56.439Z,78.2
2016-08-04T15:01:06.449Z,78.2
2016-08-04T15:01:16.451Z,78
2016-08-04T15:01:26.458Z,78.4
2016-08-04T15:01:36.461Z,78.2
2016-08-04T15:01:46.466Z,78.2
2016-08-04T15:01:56.481Z,78.1
2016-08-04T15:02:06.475Z,77.9
2016-08-04T15:02:16.483Z,78.1
2016-08-04T15:02:26.483Z,78.3
2016-08-04T15:02:36.492Z,78.3
2016-08-04T15:02:45.764Z,78
2016-08-04T15:02:56.516Z,78.1
2016-08-04T15:03:06.504Z,78.1
2016-08-04T15:03:16.520Z,78.2
2016-08-04T15:03:26.514Z,78.2
2016-08-04T15:03:36.520Z,78.2
2016-08-04T15:03:46.524Z,78.5
2016-08-04T15:03:56.530Z,78.9
2016-08-04T15:04:06.535Z,79
2016-08-04T15:04:16.540Z,79
2016-08-04T15:04:26.543Z,79.3
2016-08-04T15:04:36.548Z,79.1
2016-08-04T15:04:46.551Z,79.2
2016-08-04T15:04:56.557Z,79.7
2016-08-04T15:05:06.565Z,78.7
2016-08-04T15:05:16.571Z,79.3
2016-08-04T15:05:26.573Z,78.5
2016-08-04T15:05:36.585Z,79
2016-08-04T15:05:46.583Z,79.2
2016-08-04T15:05:56.588Z,79
2016-08-04T15:06:06.595Z,79.2
2016-08-04T15:06:16.597Z,78.8
2016-08-04T15:06:26.601Z,79.3
2016-08-04T15:06:35.877Z,79.7
2016-08-04T15:06:46.611Z,80.5
2016-08-04T15:06:55.888Z,79.8
2016-08-04T15:07:06.620Z,79.8
2016-08-04T15:07:16.625Z,79.5
2016-08-04T15:07:26.633Z,79.3
2016-08-04T15:07:36.637Z,78.9
2016-08-04T15:07:46.640Z,78.9
2016-08-04T15:07:56.643Z,79.3
2016-08-04T15:08:06.653Z,79.1
2016-08-04T15:08:26.662Z,78.9
2016-08-04T15:08:36.663Z,79.6
2016-08-04T15:08:46.668Z,79.5
2016-08-04T15:08:56.673Z,79.2
2016-08-04T15:09:06.680Z,78.9
2016-08-04T15:09:16.692Z,78.6
2016-08-04T15:09:26.689Z,78.7
2016-08-04T15:09:36.693Z,78.7
2016-08-04T15:09:46.697Z,78.4
2016-08-04T15:09:56.703Z,78.3
2016-08-04T15:10:06.792Z,78.8
2016-08-04T15:10:16.722Z,78.2
2016-08-04T15:10:26.717Z,78.2
2016-08-04T15:10:36.720Z,78.3
2016-08-04T15:10:46.730Z,78.2
2016-08-04T15:10:56.740Z,77.7
2016-08-04T15:11:06.734Z,77.7
2016-08-04T15:11:16.743Z,77.7
2016-08-04T15:11:26.747Z,77.6
2016-08-04T15:11:36.750Z,77.4
2016-08-04T15:11:46.756Z,77.8
2016-08-04T15:11:56.756Z,77.9
2016-08-04T15:12:06.765Z,77.7
2016-08-04T15:12:16.775Z,77.8
2016-08-04T15:12:26.772Z,77.7
2016-08-04T15:12:36.780Z,77.6
2016-08-04T15:12:46.786Z,77.9
2016-08-04T15:12:56.791Z,77.8
2016-08-04T15:13:06.066Z,78.1
2016-08-04T15:13:16.797Z,78
2016-08-04T15:13:26.076Z,77.7
2016-08-04T15:13:36.808Z,78.1
2016-08-04T15:13:46.812Z,77.6
2016-08-04T15:13:56.820Z,77.5
2016-08-04T15:14:06.838Z,77.7
2016-08-04T15:14:16.830Z,77.6
2016-08-04T15:14:26.866Z,77.7
2016-08-04T15:14:36.837Z,77.7
2016-08-04T15:14:46.840Z,77.5
2016-08-04T15:14:56.842Z,77.5
2016-08-04T15:15:06.850Z,78.2
2016-08-04T15:15:16.854Z,78.2
2016-08-04T15:15:26.863Z,78.2
2016-08-04T15:15:36.866Z,78.4
2016-08-04T15:15:46.871Z,78.5
2016-08-04T15:15:56.878Z,77.9
2016-08-04T15:16:06.883Z,78.2
2016-08-04T15:16:16.886Z,78.7
2016-08-04T15:16:26.890Z,79.2
2016-08-04T15:16:36.893Z,79.4
2016-08-04T15:16:46.935Z,79.7
2016-08-04T15:16:56.906Z,79.5
2016-08-04T15:17:06.910Z,79.1
2016-08-04T15:17:16.913Z,79
2016-08-04T15:17:26.191Z,78.7
2016-08-04T15:17:36.925Z,78.8
2016-08-04T15:17:46.927Z,78.2
2016-08-04T15:17:56.935Z,78.4
2016-08-04T15:18:06.941Z,78.7
2016-08-04T15:18:16.945Z,79.7
2016-08-04T15:18:26.219Z,79.7
2016-08-04T15:18:36.951Z,80.2
2016-08-04T15:18:46.963Z,80.5
2016-08-04T15:18:56.964Z,81.2
2016-08-04T15:19:06.969Z,80.5
2016-08-04T15:19:16.971Z,80.6
2016-08-04T15:19:26.981Z,80.6
2016-08-04T15:19:36.988Z,80.2
2016-08-04T15:19:46.260Z,80.5
2016-08-04T15:19:56.992Z,79.6
2016-08-04T15:20:06.994Z,79.2
2016-08-04T15:20:17.000Z,79.3
2016-08-04T15:20:27.006Z,79.4
2016-08-04T15:20:37.011Z,79.1
2016-08-04T15:20:47.014Z,79.3
2016-08-04T15:20:57.023Z,78.8
2016-08-04T15:21:07.038Z,78.6
2016-08-04T15:21:16.302Z,78.6
2016-08-04T15:21:27.039Z,78.1
2016-08-04T15:21:36.310Z,77.9
2016-08-04T15:21:47.043Z,78.1
2016-08-04T15:21:57.048Z,77.9
2016-08-04T15:22:07.061Z,77.9
2016-08-04T15:22:17.058Z,78.1
2016-08-04T15:22:27.070Z,77.6
2016-08-04T15:22:37.067Z,77.6
2016-08-04T15:22:47.067Z,77.4
2016-08-04T15:22:57.077Z,77.5
2016-08-04T15:23:07.080Z,77.8
2016-08-04T15:23:27.096Z,78.1
2016-08-04T15:23:37.121Z,78.4
2016-08-04T15:23:47.102Z,78.1
2016-08-04T15:23:57.107Z,77.9
2016-08-04T15:24:07.112Z,77.7
2016-08-04T15:24:16.387Z,77.6
2016-08-04T15:24:27.120Z,77.8
2016-08-04T15:24:37.126Z,77.8
2016-08-04T15:24:46.610Z,77.2
2016-08-04T15:24:57.136Z,77.3
2016-08-04T15:25:07.144Z,77.4
2016-08-04T15:25:17.143Z,77.2
2016-08-04T15:25:27.148Z,77.1
2016-08-04T15:25:37.155Z,77.4
2016-08-04T15:25:47.163Z,77.2
2016-08-04T15:25:57.160Z,77.1
2016-08-04T15:26:07.169Z,77.3
2016-08-04T15:26:17.172Z,77.3
2016-08-04T15:26:27.179Z,77.8
2016-08-04T15:26:37.185Z,77.7
2016-08-04T15:26:47.184Z,77.1
2016-08-04T15:26:57.192Z,77.9
2016-08-04T15:27:07.195Z,78.3
2016-08-04T15:27:16.478Z,78.1
2016-08-04T15:27:27.208Z,77.9
2016-08-04T15:27:37.214Z,77.4
2016-08-04T15:27:47.215Z,77.8
2016-08-04T15:27:57.221Z,77.5
2016-08-04T15:28:07.226Z,77.8
2016-08-04T15:28:16.504Z,78.1
2016-08-04T15:28:27.243Z,77.8
2016-08-04T15:28:37.240Z,77.4
2016-08-04T15:28:47.245Z,77.8
2016-08-04T15:28:57.252Z,77.4
2016-08-04T15:29:07.267Z,77.1
2016-08-04T15:29:17.265Z,77.6
2016-08-04T15:29:27.266Z,77.3
2016-08-04T15:29:36.541Z,77.4
2016-08-04T15:29:47.272Z,77.7
2016-08-04T15:29:57.280Z,77.5
2016-08-04T15:30:07.290Z,78.1
2016-08-04T15:30:17.291Z,78.9
2016-08-04T15:30:27.294Z,78.8
2016-08-04T15:30:37.296Z,79.3
2016-08-04T15:30:47.304Z,79.2
2016-08-04T15:30:57.310Z,79.7
2016-08-04T15:31:07.312Z,79
2016-08-04T15:31:16.590Z,79.4
2016-08-04T15:31:27.321Z,78.8
2016-08-04T15:31:37.327Z,78.3
2016-08-04T15:31:47.330Z,78.2
2016-08-04T15:31:57.340Z,78.2
2016-08-04T15:32:07.339Z,78.1
2016-08-04T15:32:17.350Z,78.2
2016-08-04T15:32:27.360Z,79.1
2016-08-04T15:32:37.361Z,79.6
2016-08-04T15:32:47.359Z,79.5
2016-08-04T15:32:56.675Z,80.6
2016-08-04T15:33:07.371Z,80.5
2016-08-04T15:33:17.375Z,80.5
2016-08-04T15:33:27.378Z,79.7
2016-08-04T15:33:36.665Z,79.7
2016-08-04T15:33:47.390Z,79.3
2016-08-04T15:33:57.393Z,79.6
2016-08-04T15:34:07.399Z,79.2
2016-08-04T15:34:17.407Z,79.7
2016-08-04T15:34:27.407Z,79.8
2016-08-04T15:34:37.428Z,80.4
2016-08-04T15:34:47.423Z,79.5
2016-08-04T15:34:57.422Z,79.8
2016-08-04T15:35:07.425Z,79.6
2016-08-04T15:35:17.435Z,79.7
2016-08-04T15:35:27.437Z,79.6
2016-08-04T15:35:37.442Z,79.6
2016-08-04T15:35:47.447Z,79.9
2016-08-04T15:35:57.453Z,79.7
2016-08-04T15:36:07.483Z,79.9
2016-08-04T15:36:17.463Z,80.5
2016-08-04T15:36:27.466Z,80.1
2016-08-04T15:36:37.470Z,79.7
2016-08-04T15:36:47.497Z,79.3
2016-08-04T15:36:57.479Z,78.2
2016-08-04T15:37:07.487Z,78
2016-08-04T15:37:17.488Z,77.5
2016-08-04T15:37:27.493Z,77.4
2016-08-04T15:37:37.499Z,77.9
2016-08-04T15:37:47.503Z,78.1
2016-08-04T15:37:57.507Z,78.2
2016-08-04T15:38:07.522Z,78
2016-08-04T15:38:26.801Z,78.6
2016-08-04T15:38:37.526Z,78.3
2016-08-04T15:38:47.534Z,78.2
2016-08-04T15:38:57.539Z,78.2
2016-08-04T15:39:07.544Z,78.2
2016-08-04T15:39:17.550Z,78.1
2016-08-04T15:39:27.552Z,78.5
2016-08-04T15:39:37.555Z,78.1
2016-08-04T15:39:47.565Z,77.6
2016-08-04T15:39:57.566Z,77.7
2016-08-04T15:40:07.571Z,77.7
2016-08-04T15:40:17.578Z,77.8
2016-08-04T15:40:26.849Z,77.7
2016-08-04T15:40:37.585Z,77.6
2016-08-04T15:40:47.593Z,77.6
2016-08-04T15:40:57.596Z,78
2016-08-04T15:41:07.601Z,77.8
2016-08-04T15:41:17.603Z,77.4
2016-08-04T15:41:27.608Z,77.4
2016-08-04T15:41:37.614Z,78
2016-08-04T15:41:47.620Z,77.4
2016-08-04T15:41:57.622Z,77.5
2016-08-04T15:42:07.630Z,77.7
2016-08-04T15:42:17.637Z,77.6
2016-08-04T15:42:27.638Z,77.7
2016-08-04T15:42:37.643Z,77.4
2016-08-04T15:42:47.647Z,78.2
2016-08-04T15:42:57.654Z,78.4
2016-08-04T15:43:07.657Z,78.2
2016-08-04T15:43:17.664Z,78.2
2016-08-04T15:43:27.673Z,78.3
2016-08-04T15:43:37.672Z,78.2
2016-08-04T15:43:47.677Z,78.5
2016-08-04T15:43:57.680Z,78.5
2016-08-04T15:44:07.694Z,78.9
2016-08-04T15:44:16.977Z,78.7
2016-08-04T15:44:27.693Z,78.6
2016-08-04T15:44:36.973Z,78.2
2016-08-04T15:44:47.709Z,78.6
2016-08-04T15:44:57.714Z,79
2016-08-04T15:45:07.719Z,79.3
2016-08-04T15:45:16.989Z,79.5
2016-08-04T15:45:27.726Z,79.5
2016-08-04T15:45:37.728Z,79.7
2016-08-04T15:45:47.011Z,79.7
2016-08-04T15:45:57.740Z,79.6
2016-08-04T15:46:07.019Z,79.9
2016-08-04T15:46:17.748Z,79.8
2016-08-04T15:46:27.020Z,79.3
2016-08-04T15:46:37.760Z,78.8
2016-08-04T15:46:47.767Z,78.6
2016-08-04T15:46:57.767Z,78.5
2016-08-04T15:47:07.769Z,78.4
2016-08-04T15:47:17.778Z,78.4
2016-08-04T15:47:27.781Z,78.8
2016-08-04T15:47:37.789Z,78.7
2016-08-04T15:47:47.793Z,78.4
2016-08-04T15:47:57.807Z,78.8
2016-08-04T15:48:07.807Z,78.7
2016-08-04T15:48:17.807Z,78.8
2016-08-04T15:48:27.814Z,78.6
2016-08-04T15:48:37.818Z,78.9
2016-08-04T15:48:47.822Z,79
2016-08-04T15:48:57.833Z,79.7
2016-08-04T15:49:07.833Z,79.7
2016-08-04T15:49:18.038Z,79.7
2016-08-04T15:49:27.111Z,79.7
2016-08-04T15:49:37.852Z,79.7
2016-08-04T15:49:47.850Z,79.8
2016-08-04T15:49:57.123Z,80.5
2016-08-04T15:50:07.861Z,79.7
2016-08-04T15:50:17.863Z,79.8
2016-08-04T15:50:27.872Z,80.5
2016-08-04T15:50:37.874Z,80.4
2016-08-04T15:50:47.879Z,80.6
2016-08-04T15:50:57.982Z,81.2
2016-08-04T15:51:07.897Z,81.2
2016-08-04T15:51:17.895Z,80.5
2016-08-04T15:51:27.900Z,80.6
2016-08-04T15:51:37.910Z,80.5
2016-08-04T15:51:47.181Z,79.9
2016-08-04T15:51:57.921Z,80.3
2016-08-04T15:52:07.919Z,80
2016-08-04T15:52:17.923Z,80.2
2016-08-04T15:52:27.928Z,79.6
2016-08-04T15:52:37.931Z,79.7
2016-08-04T15:52:47.938Z,79.5
2016-08-04T15:52:57.940Z,79.6
2016-08-04T15:53:07.945Z,79.5
2016-08-04T15:53:17.950Z,79.5
2016-08-04T15:53:37.959Z,79.6
2016-08-04T15:53:47.963Z,79.6
2016-08-04T15:53:57.973Z,79.9
2016-08-04T15:54:07.974Z,80.3
2016-08-04T15:54:17.982Z,80.6
2016-08-04T15:54:27.983Z,80.2
2016-08-04T15:54:37.986Z,80.2
2016-08-04T15:54:47.998Z,80.7
2016-08-04T15:54:58.109Z,79.7
2016-08-04T15:55:08.004Z,79.7
2016-08-04T15:55:18.009Z,79.6
2016-08-04T15:55:28.020Z,79.5
2016-08-04T15:55:38.021Z,79.7
2016-08-04T15:55:48.024Z,79.6
2016-08-04T15:55:58.027Z,79.7
2016-08-04T15:56:08.032Z,79.5
2016-08-04T15:56:18.037Z,79.7
2016-08-04T15:56:28.041Z,79.7
2016-08-04T15:56:38.049Z,79.9
2016-08-04T15:56:48.055Z,79.7
2016-08-04T15:56:58.052Z,79.6
2016-08-04T15:57:08.060Z,79.5
2016-08-04T15:57:18.067Z,79.5
2016-08-04T15:57:28.078Z,79.7
2016-08-04T15:57:38.075Z,79.5
2016-08-04T15:57:48.080Z,79.6
2016-08-04T15:57:58.084Z,79.3
2016-08-04T15:58:08.090Z,78.8
2016-08-04T15:58:18.094Z,78.6
2016-08-04T15:58:28.099Z,78.7
2016-08-04T15:58:38.103Z,78.6
2016-08-04T15:58:48.114Z,78.6
2016-08-04T15:58:58.120Z,78.6
2016-08-04T15:59:08.117Z,79.2
2016-08-04T15:59:18.122Z,79.6
2016-08-04T15:59:28.128Z,79.9
2016-08-04T15:59:38.131Z,79.5
2016-08-04T15:59:48.137Z,79.8
2016-08-04T15:59:58.142Z,80.5
2016-08-04T16:00:08.153Z,80.4
2016-08-04T16:00:18.155Z,81.5
2016-08-04T16:00:28.158Z,81.8
2016-08-04T16:00:38.158Z,81.2